sensor_id;sensor_type;location;lat;lon;timestamp;P1;durP1;ratioP1;P2;durP2;ratioP2
73104;SDS011;61296;50.526;30.792;2022-10-26T00:08:55;26.13;;;13.30;;
73104;SDS011;61296;50.526;30.792;2022-10-26T00:24:15;34.38;;;16.42;;
73104;SDS011;61296;50.526;30.792;2022-10-26T00:39:34;58.35;;;18.90;;
73104;SDS011;61296;50.526;30.792;2022-10-26T00:54:53;50.65;;;18.25;;
73104;SDS011;61296;50.526;30.792;2022-10-26T01:10:12;52.90;;;18.08;;
73104;SDS011;61296;50.526;30.792;2022-10-26T01:41:46;63.42;;;21.85;;
73104;SDS011;61296;50.526;30.792;2022-10-26T01:57:08;56.63;;;20.55;;
73104;SDS011;61296;50.526;30.792;2022-10-26T02:28:13;69.20;;;21.73;;
73104;SDS011;61296;50.526;30.792;2022-10-26T02:43:37;49.92;;;20.48;;
73104;SDS011;61296;50.526;30.792;2022-10-26T02:59:03;55.87;;;18.87;;
73104;SDS011;61296;50.526;30.792;2022-10-26T03:14:24;57.05;;;18.77;;
73104;SDS011;61296;50.526;30.792;2022-10-26T03:29:44;40.08;;;16.77;;
73104;SDS011;61296;50.526;30.792;2022-10-26T03:45:04;40.88;;;16.63;;
73104;SDS011;61296;50.526;30.792;2022-10-26T04:00:24;35.88;;;15.10;;
73104;SDS011;61296;50.526;30.792;2022-10-26T04:15:43;37.17;;;15.63;;
73104;SDS011;61296;50.526;30.792;2022-10-26T04:31:02;29.73;;;14.05;;
73104;SDS011;61296;50.526;30.792;2022-10-26T04:46:22;35.10;;;15.00;;
73104;SDS011;61296;50.526;30.792;2022-10-26T05:01:42;47.78;;;16.70;;
73104;SDS011;61296;50.526;30.792;2022-10-26T05:17:01;35.33;;;14.85;;
73104;SDS011;61296;50.526;30.792;2022-10-26T05:32:20;35.28;;;14.23;;
73104;SDS011;61296;50.526;30.792;2022-10-26T05:47:40;31.92;;;14.27;;
73104;SDS011;61296;50.526;30.792;2022-10-26T06:33:55;28.88;;;13.13;;
73104;SDS011;61296;50.526;30.792;2022-10-26T06:49:18;24.80;;;12.48;;
73104;SDS011;61296;50.526;30.792;2022-10-26T07:04:43;25.20;;;11.93;;
73104;SDS011;61296;50.526;30.792;2022-10-26T07:20:02;22.25;;;11.85;;
73104;SDS011;61296;50.526;30.792;2022-10-26T07:35:23;25.08;;;11.85;;
73104;SDS011;61296;50.526;30.792;2022-10-26T07:50:42;14.18;;;9.45;;
73104;SDS011;61296;50.526;30.792;2022-10-26T08:06:01;14.40;;;8.63;;
73104;SDS011;61296;50.526;30.792;2022-10-26T08:21:23;10.65;;;7.40;;
73104;SDS011;61296;50.526;30.792;2022-10-26T08:36:42;12.73;;;8.27;;
73104;SDS011;61296;50.526;30.792;2022-10-26T08:52:02;9.75;;;6.68;;
73104;SDS011;61296;50.526;30.792;2022-10-26T09:38:41;8.25;;;5.40;;
73104;SDS011;61296;50.526;30.792;2022-10-26T09:54:11;8.93;;;4.53;;
73104;SDS011;61296;50.526;30.792;2022-10-26T10:09:33;6.72;;;4.32;;
73104;SDS011;61296;50.526;30.792;2022-10-26T10:24:56;9.05;;;4.53;;
73104;SDS011;61296;50.526;30.792;2022-10-26T10:40:19;6.13;;;3.73;;
73104;SDS011;61296;50.526;30.792;2022-10-26T10:55:41;5.07;;;3.00;;
73104;SDS011;61296;50.526;30.792;2022-10-26T11:42:45;8.27;;;4.43;;
73104;SDS011;61296;50.526;30.792;2022-10-26T11:58:11;9.07;;;5.28;;
73104;SDS011;61296;50.526;30.792;2022-10-26T12:13:39;8.63;;;5.60;;
73104;SDS011;61296;50.526;30.792;2022-10-26T12:45:00;7.88;;;5.78;;
73104;SDS011;61296;50.526;30.792;2022-10-26T13:00:12;9.25;;;5.78;;
73104;SDS011;61296;50.526;30.792;2022-10-26T13:30:56;10.13;;;5.75;;
73104;SDS011;61296;50.526;30.792;2022-10-26T13:46:21;10.75;;;6.22;;
73104;SDS011;61296;50.526;30.792;2022-10-26T14:01:43;13.68;;;7.05;;
73104;SDS011;61296;50.526;30.792;2022-10-26T14:17:03;13.65;;;7.10;;
73104;SDS011;61296;50.526;30.792;2022-10-26T14:32:27;12.02;;;6.60;;
73104;SDS011;61296;50.526;30.792;2022-10-26T14:47:51;11.70;;;6.10;;
73104;SDS011;61296;50.526;30.792;2022-10-26T15:03:13;13.80;;;8.27;;
73104;SDS011;61296;50.526;30.792;2022-10-26T15:18:35;15.55;;;8.80;;
73104;SDS011;61296;50.526;30.792;2022-10-26T15:49:24;19.95;;;11.77;;
73104;SDS011;61296;50.526;30.792;2022-10-26T16:04:44;21.35;;;10.57;;
73104;SDS011;61296;50.526;30.792;2022-10-26T16:20:03;20.60;;;9.85;;
73104;SDS011;61296;50.526;30.792;2022-10-26T16:35:23;15.65;;;9.38;;
73104;SDS011;61296;50.526;30.792;2022-10-26T16:50:42;21.13;;;8.95;;
73104;SDS011;61296;50.526;30.792;2022-10-26T17:06:03;18.45;;;10.45;;
73104;SDS011;61296;50.526;30.792;2022-10-26T17:21:28;16.40;;;9.40;;
73104;SDS011;61296;50.526;30.792;2022-10-26T17:36:52;12.95;;;7.53;;
73104;SDS011;61296;50.526;30.792;2022-10-26T17:52:11;13.70;;;7.07;;
73104;SDS011;61296;50.526;30.792;2022-10-26T18:07:30;12.60;;;6.30;;
73104;SDS011;61296;50.526;30.792;2022-10-26T18:22:49;10.88;;;6.63;;
73104;SDS011;61296;50.526;30.792;2022-10-26T18:38:09;16.58;;;7.68;;
73104;SDS011;61296;50.526;30.792;2022-10-26T18:53:30;10.00;;;6.20;;
73104;SDS011;61296;50.526;30.792;2022-10-26T19:08:50;12.43;;;5.53;;
73104;SDS011;61296;50.526;30.792;2022-10-26T19:24:14;8.63;;;5.13;;
73104;SDS011;61296;50.526;30.792;2022-10-26T19:39:35;9.98;;;5.13;;
73104;SDS011;61296;50.526;30.792;2022-10-26T19:54:54;10.52;;;5.20;;
73104;SDS011;61296;50.526;30.792;2022-10-26T20:10:14;10.93;;;4.70;;
73104;SDS011;61296;50.526;30.792;2022-10-26T20:25:34;8.02;;;4.72;;
73104;SDS011;61296;50.526;30.792;2022-10-26T20:40:58;7.95;;;4.80;;
73104;SDS011;61296;50.526;30.792;2022-10-26T20:56:19;6.97;;;4.82;;
73104;SDS011;61296;50.526;30.792;2022-10-26T21:11:46;10.00;;;5.10;;
73104;SDS011;61296;50.526;30.792;2022-10-26T21:27:05;8.98;;;5.38;;
73104;SDS011;61296;50.526;30.792;2022-10-26T21:42:25;8.57;;;5.43;;
73104;SDS011;61296;50.526;30.792;2022-10-26T21:57:44;9.60;;;6.13;;
73104;SDS011;61296;50.526;30.792;2022-10-26T22:13:04;11.05;;;6.55;;
73104;SDS011;61296;50.526;30.792;2022-10-26T22:28:23;13.30;;;7.28;;
73104;SDS011;61296;50.526;30.792;2022-10-26T22:43:42;13.10;;;7.07;;
73104;SDS011;61296;50.526;30.792;2022-10-26T22:59:02;14.88;;;7.43;;
73104;SDS011;61296;50.526;30.792;2022-10-26T23:14:23;14.35;;;7.38;;
73104;SDS011;61296;50.526;30.792;2022-10-26T23:29:45;13.02;;;7.68;;
73104;SDS011;61296;50.526;30.792;2022-10-26T23:45:05;16.60;;;8.25;;
